sensor_id;sensor_type;location;lat;lon;timestamp;P1;durP1;ratioP1;P2;durP2;ratioP2
27225;SDS011;14732;51.074;3.788;2022-07-18T00:01:48;5.53;;;2.20;;
27225;SDS011;14732;51.074;3.788;2022-07-18T00:04:14;5.43;;;2.55;;
27225;SDS011;14732;51.074;3.788;2022-07-18T00:06:40;6.28;;;1.98;;
27225;SDS011;14732;51.074;3.788;2022-07-18T00:09:05;6.53;;;2.53;;
27225;SDS011;14732;51.074;3.788;2022-07-18T00:11:31;6.80;;;2.58;;
27225;SDS011;14732;51.074;3.788;2022-07-18T00:13:57;4.82;;;2.47;;
27225;SDS011;14732;51.074;3.788;2022-07-18T00:16:23;4.30;;;2.33;;
27225;SDS011;14732;51.074;3.788;2022-07-18T00:18:49;3.70;;;2.25;;
27225;SDS011;14732;51.074;3.788;2022-07-18T00:21:15;5.10;;;2.50;;
27225;SDS011;14732;51.074;3.788;2022-07-18T00:23:41;4.93;;;2.42;;
27225;SDS011;14732;51.074;3.788;2022-07-18T00:26:07;4.30;;;2.38;;
27225;SDS011;14732;51.074;3.788;2022-07-18T00:28:33;4.30;;;2.13;;
27225;SDS011;14732;51.074;3.788;2022-07-18T00:30:59;3.70;;;2.25;;
27225;SDS011;14732;51.074;3.788;2022-07-18T00:33:24;5.30;;;1.98;;
27225;SDS011;14732;51.074;3.788;2022-07-18T00:35:50;9.48;;;2.50;;
27225;SDS011;14732;51.074;3.788;2022-07-18T00:38:16;5.15;;;2.17;;
27225;SDS011;14732;51.074;3.788;2022-07-18T00:40:42;3.33;;;2.33;;
27225;SDS011;14732;51.074;3.788;2022-07-18T00:43:08;4.90;;;2.30;;
27225;SDS011;14732;51.074;3.788;2022-07-18T00:45:36;4.65;;;2.50;;
27225;SDS011;14732;51.074;3.788;2022-07-18T00:48:08;5.50;;;2.30;;
27225;SDS011;14732;51.074;3.788;2022-07-18T00:50:33;4.22;;;2.50;;
27225;SDS011;14732;51.074;3.788;2022-07-18T00:52:59;3.03;;;1.98;;
27225;SDS011;14732;51.074;3.788;2022-07-18T00:55:25;3.45;;;2.28;;
27225;SDS011;14732;51.074;3.788;2022-07-18T00:57:51;4.82;;;2.30;;
27225;SDS011;14732;51.074;3.788;2022-07-18T01:00:18;3.30;;;2.20;;
27225;SDS011;14732;51.074;3.788;2022-07-18T01:03:02;6.80;;;2.45;;
27225;SDS011;14732;51.074;3.788;2022-07-18T01:05:28;6.13;;;2.33;;
27225;SDS011;14732;51.074;3.788;2022-07-18T01:07:54;2.78;;;2.25;;
27225;SDS011;14732;51.074;3.788;2022-07-18T01:10:20;6.15;;;2.53;;
27225;SDS011;14732;51.074;3.788;2022-07-18T01:12:46;5.15;;;2.80;;
27225;SDS011;14732;51.074;3.788;2022-07-18T01:15:12;8.95;;;2.53;;
27225;SDS011;14732;51.074;3.788;2022-07-18T01:17:38;5.40;;;2.20;;
27225;SDS011;14732;51.074;3.788;2022-07-18T01:20:04;4.85;;;2.50;;
27225;SDS011;14732;51.074;3.788;2022-07-18T01:22:31;6.15;;;2.42;;
27225;SDS011;14732;51.074;3.788;2022-07-18T01:24:58;3.05;;;2.35;;
27225;SDS011;14732;51.074;3.788;2022-07-18T01:27:23;7.38;;;2.63;;
27225;SDS011;14732;51.074;3.788;2022-07-18T01:29:50;6.45;;;2.60;;
27225;SDS011;14732;51.074;3.788;2022-07-18T01:32:17;3.17;;;2.30;;
27225;SDS011;14732;51.074;3.788;2022-07-18T01:34:45;5.03;;;2.63;;
27225;SDS011;14732;51.074;3.788;2022-07-18T01:37:14;4.75;;;2.60;;
27225;SDS011;14732;51.074;3.788;2022-07-18T01:39:43;4.43;;;2.50;;
27225;SDS011;14732;51.074;3.788;2022-07-18T01:42:10;4.95;;;2.40;;
27225;SDS011;14732;51.074;3.788;2022-07-18T01:44:37;5.97;;;2.75;;
27225;SDS011;14732;51.074;3.788;2022-07-18T01:47:04;8.38;;;2.67;;
27225;SDS011;14732;51.074;3.788;2022-07-18T01:49:31;7.32;;;3.00;;
27225;SDS011;14732;51.074;3.788;2022-07-18T01:51:57;4.32;;;2.50;;
27225;SDS011;14732;51.074;3.788;2022-07-18T01:54:25;6.80;;;2.83;;
27225;SDS011;14732;51.074;3.788;2022-07-18T01:56:53;5.35;;;2.63;;
27225;SDS011;14732;51.074;3.788;2022-07-18T01:59:19;8.48;;;2.85;;
27225;SDS011;14732;51.074;3.788;2022-07-18T02:01:46;4.03;;;2.33;;
27225;SDS011;14732;51.074;3.788;2022-07-18T02:04:12;4.22;;;2.72;;
27225;SDS011;14732;51.074;3.788;2022-07-18T02:06:38;7.60;;;2.80;;
27225;SDS011;14732;51.074;3.788;2022-07-18T02:09:04;6.50;;;3.13;;
27225;SDS011;14732;51.074;3.788;2022-07-18T02:11:32;8.00;;;3.15;;
27225;SDS011;14732;51.074;3.788;2022-07-18T02:13:58;4.50;;;2.80;;
27225;SDS011;14732;51.074;3.788;2022-07-18T02:16:24;6.57;;;3.17;;
27225;SDS011;14732;51.074;3.788;2022-07-18T02:18:50;4.50;;;3.00;;
27225;SDS011;14732;51.074;3.788;2022-07-18T02:21:15;4.88;;;3.20;;
27225;SDS011;14732;51.074;3.788;2022-07-18T02:23:42;9.80;;;3.22;;
27225;SDS011;14732;51.074;3.788;2022-07-18T02:26:08;9.40;;;3.08;;
27225;SDS011;14732;51.074;3.788;2022-07-18T02:28:35;5.93;;;3.15;;
27225;SDS011;14732;51.074;3.788;2022-07-18T02:31:01;7.68;;;3.50;;
27225;SDS011;14732;51.074;3.788;2022-07-18T02:33:27;5.60;;;3.10;;
27225;SDS011;14732;51.074;3.788;2022-07-18T02:35:53;7.13;;;2.90;;
27225;SDS011;14732;51.074;3.788;2022-07-18T02:38:18;10.95;;;3.10;;
27225;SDS011;14732;51.074;3.788;2022-07-18T02:40:44;4.25;;;2.70;;
27225;SDS011;14732;51.074;3.788;2022-07-18T02:43:10;3.63;;;2.83;;
27225;SDS011;14732;51.074;3.788;2022-07-18T02:45:35;7.35;;;3.25;;
27225;SDS011;14732;51.074;3.788;2022-07-18T02:48:01;9.00;;;3.38;;
27225;SDS011;14732;51.074;3.788;2022-07-18T02:50:27;8.90;;;3.47;;
27225;SDS011;14732;51.074;3.788;2022-07-18T02:52:53;5.85;;;3.42;;
27225;SDS011;14732;51.074;3.788;2022-07-18T02:55:18;6.63;;;3.33;;
27225;SDS011;14732;51.074;3.788;2022-07-18T02:57:45;6.47;;;3.30;;
27225;SDS011;14732;51.074;3.788;2022-07-18T03:00:12;4.32;;;3.15;;
27225;SDS011;14732;51.074;3.788;2022-07-18T03:02:39;6.57;;;3.55;;
27225;SDS011;14732;51.074;3.788;2022-07-18T03:05:05;6.53;;;3.45;;
27225;SDS011;14732;51.074;3.788;2022-07-18T03:07:31;8.50;;;3.67;;
27225;SDS011;14732;51.074;3.788;2022-07-18T03:09:57;6.45;;;3.38;;
27225;SDS011;14732;51.074;3.788;2022-07-18T03:12:23;7.13;;;2.97;;
27225;SDS011;14732;51.074;3.788;2022-07-18T03:14:49;8.75;;;3.55;;
27225;SDS011;14732;51.074;3.788;2022-07-18T03:17:15;8.45;;;3.55;;
27225;SDS011;14732;51.074;3.788;2022-07-18T03:19:41;5.32;;;3.13;;
27225;SDS011;14732;51.074;3.788;2022-07-18T03:22:06;4.63;;;3.38;;
27225;SDS011;14732;51.074;3.788;2022-07-18T03:24:32;6.63;;;3.70;;
27225;SDS011;14732;51.074;3.788;2022-07-18T03:26:58;5.85;;;3.42;;
27225;SDS011;14732;51.074;3.788;2022-07-18T03:29:24;7.28;;;3.53;;
27225;SDS011;14732;51.074;3.788;2022-07-18T03:31:50;8.10;;;3.65;;
27225;SDS011;14732;51.074;3.788;2022-07-18T03:34:16;8.75;;;3.25;;
27225;SDS011;14732;51.074;3.788;2022-07-18T03:36:43;4.70;;;3.38;;
27225;SDS011;14732;51.074;3.788;2022-07-18T03:39:08;8.68;;;3.00;;
27225;SDS011;14732;51.074;3.788;2022-07-18T03:41:35;5.82;;;3.47;;
27225;SDS011;14732;51.074;3.788;2022-07-18T03:44:02;4.40;;;3.30;;
27225;SDS011;14732;51.074;3.788;2022-07-18T03:46:28;6.28;;;3.50;;
27225;SDS011;14732;51.074;3.788;2022-07-18T03:48:54;8.23;;;3.63;;
27225;SDS011;14732;51.074;3.788;2022-07-18T03:51:20;10.35;;;3.80;;
27225;SDS011;14732;51.074;3.788;2022-07-18T03:53:46;9.68;;;4.00;;
27225;SDS011;14732;51.074;3.788;2022-07-18T03:56:11;9.85;;;4.05;;
27225;SDS011;14732;51.074;3.788;2022-07-18T03:58:37;13.85;;;4.45;;
27225;SDS011;14732;51.074;3.788;2022-07-18T04:01:03;10.27;;;3.72;;
27225;SDS011;14732;51.074;3.788;2022-07-18T04:03:28;7.82;;;3.88;;
27225;SDS011;14732;51.074;3.788;2022-07-18T04:05:54;10.20;;;4.10;;
27225;SDS011;14732;51.074;3.788;2022-07-18T04:08:20;11.32;;;3.95;;
27225;SDS011;14732;51.074;3.788;2022-07-18T04:10:46;10.50;;;3.95;;
27225;SDS011;14732;51.074;3.788;2022-07-18T04:13:12;8.82;;;3.88;;
27225;SDS011;14732;51.074;3.788;2022-07-18T04:15:38;10.18;;;3.60;;
27225;SDS011;14732;51.074;3.788;2022-07-18T04:18:04;5.53;;;4.07;;
27225;SDS011;14732;51.074;3.788;2022-07-18T04:20:31;8.13;;;3.67;;
27225;SDS011;14732;51.074;3.788;2022-07-18T04:22:58;9.73;;;3.92;;
27225;SDS011;14732;51.074;3.788;2022-07-18T04:25:26;10.80;;;3.83;;
27225;SDS011;14732;51.074;3.788;2022-07-18T04:27:54;10.57;;;4.22;;
27225;SDS011;14732;51.074;3.788;2022-07-18T04:30:23;9.15;;;4.18;;
27225;SDS011;14732;51.074;3.788;2022-07-18T04:32:49;5.90;;;3.45;;
27225;SDS011;14732;51.074;3.788;2022-07-18T04:35:15;8.23;;;3.80;;
27225;SDS011;14732;51.074;3.788;2022-07-18T04:37:41;8.38;;;3.63;;
27225;SDS011;14732;51.074;3.788;2022-07-18T04:40:08;12.55;;;3.85;;
27225;SDS011;14732;51.074;3.788;2022-07-18T04:42:35;8.48;;;3.90;;
27225;SDS011;14732;51.074;3.788;2022-07-18T04:45:02;8.63;;;4.00;;
27225;SDS011;14732;51.074;3.788;2022-07-18T04:48:05;6.05;;;3.63;;
27225;SDS011;14732;51.074;3.788;2022-07-18T04:50:32;7.30;;;3.50;;
27225;SDS011;14732;51.074;3.788;2022-07-18T04:52:58;7.50;;;3.42;;
27225;SDS011;14732;51.074;3.788;2022-07-18T04:55:24;6.60;;;3.20;;
27225;SDS011;14732;51.074;3.788;2022-07-18T04:57:51;9.13;;;3.38;;
27225;SDS011;14732;51.074;3.788;2022-07-18T05:00:22;5.85;;;3.22;;
27225;SDS011;14732;51.074;3.788;2022-07-18T05:02:50;7.57;;;3.50;;
27225;SDS011;14732;51.074;3.788;2022-07-18T05:05:17;6.05;;;3.35;;
27225;SDS011;14732;51.074;3.788;2022-07-18T05:07:44;5.72;;;3.17;;
27225;SDS011;14732;51.074;3.788;2022-07-18T05:10:12;9.65;;;3.17;;
27225;SDS011;14732;51.074;3.788;2022-07-18T05:12:40;6.95;;;3.08;;
27225;SDS011;14732;51.074;3.788;2022-07-18T05:15:09;6.93;;;3.40;;
27225;SDS011;14732;51.074;3.788;2022-07-18T05:17:37;8.25;;;3.30;;
27225;SDS011;14732;51.074;3.788;2022-07-18T05:20:04;5.32;;;2.97;;
27225;SDS011;14732;51.074;3.788;2022-07-18T05:22:32;8.63;;;3.17;;
27225;SDS011;14732;51.074;3.788;2022-07-18T05:24:58;6.82;;;3.30;;
27225;SDS011;14732;51.074;3.788;2022-07-18T05:27:24;9.30;;;3.33;;
27225;SDS011;14732;51.074;3.788;2022-07-18T05:29:49;6.28;;;3.40;;
27225;SDS011;14732;51.074;3.788;2022-07-18T05:32:15;10.05;;;3.10;;
27225;SDS011;14732;51.074;3.788;2022-07-18T05:34:41;8.40;;;2.90;;
27225;SDS011;14732;51.074;3.788;2022-07-18T05:37:06;7.15;;;2.88;;
27225;SDS011;14732;51.074;3.788;2022-07-18T05:39:32;8.82;;;3.10;;
27225;SDS011;14732;51.074;3.788;2022-07-18T05:41:58;6.82;;;3.13;;
27225;SDS011;14732;51.074;3.788;2022-07-18T05:44:24;5.65;;;2.53;;
27225;SDS011;14732;51.074;3.788;2022-07-18T05:46:49;8.00;;;2.83;;
27225;SDS011;14732;51.074;3.788;2022-07-18T05:49:15;7.90;;;3.13;;
27225;SDS011;14732;51.074;3.788;2022-07-18T05:51:41;6.97;;;2.67;;
27225;SDS011;14732;51.074;3.788;2022-07-18T05:54:07;6.05;;;2.45;;
27225;SDS011;14732;51.074;3.788;2022-07-18T05:56:33;9.55;;;2.83;;
27225;SDS011;14732;51.074;3.788;2022-07-18T05:58:59;7.00;;;2.80;;
27225;SDS011;14732;51.074;3.788;2022-07-18T06:01:24;7.60;;;3.30;;
27225;SDS011;14732;51.074;3.788;2022-07-18T06:03:50;4.97;;;2.50;;
27225;SDS011;14732;51.074;3.788;2022-07-18T06:06:16;15.75;;;2.90;;
27225;SDS011;14732;51.074;3.788;2022-07-18T06:08:43;6.10;;;2.88;;
27225;SDS011;14732;51.074;3.788;2022-07-18T06:11:09;5.40;;;2.58;;
27225;SDS011;14732;51.074;3.788;2022-07-18T06:13:36;7.75;;;2.65;;
27225;SDS011;14732;51.074;3.788;2022-07-18T06:16:04;7.05;;;3.72;;
27225;SDS011;14732;51.074;3.788;2022-07-18T06:18:30;6.88;;;2.80;;
27225;SDS011;14732;51.074;3.788;2022-07-18T06:20:56;7.00;;;2.95;;
27225;SDS011;14732;51.074;3.788;2022-07-18T06:23:22;5.32;;;2.75;;
27225;SDS011;14732;51.074;3.788;2022-07-18T06:25:48;7.03;;;2.90;;
27225;SDS011;14732;51.074;3.788;2022-07-18T06:28:13;5.93;;;2.75;;
27225;SDS011;14732;51.074;3.788;2022-07-18T06:30:39;4.28;;;2.63;;
27225;SDS011;14732;51.074;3.788;2022-07-18T06:33:05;6.65;;;2.72;;
27225;SDS011;14732;51.074;3.788;2022-07-18T06:35:32;11.00;;;2.80;;
27225;SDS011;14732;51.074;3.788;2022-07-18T06:37:59;7.70;;;2.55;;
27225;SDS011;14732;51.074;3.788;2022-07-18T06:40:25;10.77;;;2.53;;
27225;SDS011;14732;51.074;3.788;2022-07-18T06:42:51;5.75;;;2.40;;
27225;SDS011;14732;51.074;3.788;2022-07-18T06:45:17;6.07;;;2.58;;
27225;SDS011;14732;51.074;3.788;2022-07-18T06:47:43;9.05;;;2.80;;
27225;SDS011;14732;51.074;3.788;2022-07-18T06:50:10;7.30;;;2.70;;
27225;SDS011;14732;51.074;3.788;2022-07-18T06:52:38;8.30;;;2.80;;
27225;SDS011;14732;51.074;3.788;2022-07-18T06:55:05;8.10;;;2.30;;
27225;SDS011;14732;51.074;3.788;2022-07-18T06:57:31;7.45;;;2.90;;
27225;SDS011;14732;51.074;3.788;2022-07-18T06:59:57;8.23;;;2.97;;
27225;SDS011;14732;51.074;3.788;2022-07-18T07:02:22;7.88;;;2.65;;
27225;SDS011;14732;51.074;3.788;2022-07-18T07:04:48;8.50;;;2.65;;
27225;SDS011;14732;51.074;3.788;2022-07-18T07:07:14;9.35;;;2.67;;
27225;SDS011;14732;51.074;3.788;2022-07-18T07:09:39;6.57;;;2.38;;
27225;SDS011;14732;51.074;3.788;2022-07-18T07:12:05;6.63;;;2.58;;
27225;SDS011;14732;51.074;3.788;2022-07-18T07:14:31;6.05;;;2.58;;
27225;SDS011;14732;51.074;3.788;2022-07-18T07:16:57;4.90;;;2.78;;
27225;SDS011;14732;51.074;3.788;2022-07-18T07:19:23;6.18;;;2.40;;
27225;SDS011;14732;51.074;3.788;2022-07-18T07:21:48;7.85;;;2.97;;
27225;SDS011;14732;51.074;3.788;2022-07-18T07:24:14;8.43;;;2.92;;
27225;SDS011;14732;51.074;3.788;2022-07-18T07:26:40;9.80;;;2.63;;
27225;SDS011;14732;51.074;3.788;2022-07-18T07:29:05;7.65;;;2.72;;
27225;SDS011;14732;51.074;3.788;2022-07-18T07:31:31;5.57;;;2.70;;
27225;SDS011;14732;51.074;3.788;2022-07-18T07:33:57;7.38;;;2.38;;
27225;SDS011;14732;51.074;3.788;2022-07-18T07:36:22;5.28;;;2.50;;
27225;SDS011;14732;51.074;3.788;2022-07-18T07:38:48;6.47;;;2.53;;
27225;SDS011;14732;51.074;3.788;2022-07-18T07:41:14;11.50;;;2.78;;
27225;SDS011;14732;51.074;3.788;2022-07-18T07:43:40;5.75;;;2.50;;
27225;SDS011;14732;51.074;3.788;2022-07-18T07:46:06;9.43;;;2.60;;
27225;SDS011;14732;51.074;3.788;2022-07-18T07:48:32;4.88;;;2.20;;
27225;SDS011;14732;51.074;3.788;2022-07-18T07:50:57;7.95;;;2.55;;
27225;SDS011;14732;51.074;3.788;2022-07-18T07:53:23;7.95;;;2.38;;
27225;SDS011;14732;51.074;3.788;2022-07-18T07:55:49;6.88;;;2.25;;
27225;SDS011;14732;51.074;3.788;2022-07-18T07:58:15;4.70;;;2.15;;
27225;SDS011;14732;51.074;3.788;2022-07-18T08:00:40;8.50;;;2.45;;
27225;SDS011;14732;51.074;3.788;2022-07-18T08:03:07;5.80;;;2.30;;
27225;SDS011;14732;51.074;3.788;2022-07-18T08:05:37;7.15;;;2.22;;
27225;SDS011;14732;51.074;3.788;2022-07-18T08:08:08;7.55;;;2.40;;
27225;SDS011;14732;51.074;3.788;2022-07-18T08:10:34;9.55;;;2.10;;
27225;SDS011;14732;51.074;3.788;2022-07-18T08:12:59;4.70;;;2.28;;
27225;SDS011;14732;51.074;3.788;2022-07-18T08:15:25;12.68;;;2.40;;
27225;SDS011;14732;51.074;3.788;2022-07-18T08:17:51;5.80;;;1.80;;
27225;SDS011;14732;51.074;3.788;2022-07-18T08:20:17;5.95;;;2.10;;
27225;SDS011;14732;51.074;3.788;2022-07-18T08:25:22;4.57;;;2.10;;
27225;SDS011;14732;51.074;3.788;2022-07-18T08:27:49;5.90;;;2.00;;
27225;SDS011;14732;51.074;3.788;2022-07-18T08:30:14;4.07;;;1.83;;
27225;SDS011;14732;51.074;3.788;2022-07-18T08:32:40;6.78;;;1.88;;
27225;SDS011;14732;51.074;3.788;2022-07-18T08:35:06;7.25;;;2.25;;
27225;SDS011;14732;51.074;3.788;2022-07-18T08:37:32;3.92;;;1.83;;
27225;SDS011;14732;51.074;3.788;2022-07-18T08:40:00;3.95;;;1.77;;
27225;SDS011;14732;51.074;3.788;2022-07-18T08:42:26;6.20;;;1.70;;
27225;SDS011;14732;51.074;3.788;2022-07-18T08:44:54;5.50;;;2.03;;
27225;SDS011;14732;51.074;3.788;2022-07-18T08:47:21;4.00;;;1.70;;
27225;SDS011;14732;51.074;3.788;2022-07-18T08:49:48;12.52;;;2.13;;
27225;SDS011;14732;51.074;3.788;2022-07-18T08:52:14;5.13;;;1.92;;
27225;SDS011;14732;51.074;3.788;2022-07-18T08:54:41;4.43;;;1.80;;
27225;SDS011;14732;51.074;3.788;2022-07-18T08:57:07;2.88;;;1.70;;
27225;SDS011;14732;51.074;3.788;2022-07-18T08:59:33;4.63;;;2.13;;
27225;SDS011;14732;51.074;3.788;2022-07-18T09:01:59;7.82;;;2.20;;
27225;SDS011;14732;51.074;3.788;2022-07-18T09:04:41;3.22;;;1.73;;
27225;SDS011;14732;51.074;3.788;2022-07-18T09:07:09;3.38;;;1.90;;
27225;SDS011;14732;51.074;3.788;2022-07-18T09:09:57;4.35;;;1.60;;
27225;SDS011;14732;51.074;3.788;2022-07-18T09:12:26;7.33;;;1.60;;
27225;SDS011;14732;51.074;3.788;2022-07-18T09:14:53;6.72;;;1.70;;
27225;SDS011;14732;51.074;3.788;2022-07-18T09:17:26;5.22;;;1.95;;
27225;SDS011;14732;51.074;3.788;2022-07-18T09:22:22;4.55;;;1.65;;
27225;SDS011;14732;51.074;3.788;2022-07-18T09:25:05;3.13;;;1.65;;
27225;SDS011;14732;51.074;3.788;2022-07-18T09:27:41;5.13;;;1.70;;
27225;SDS011;14732;51.074;3.788;2022-07-18T09:30:17;7.43;;;2.05;;
27225;SDS011;14732;51.074;3.788;2022-07-18T09:35:30;7.75;;;1.70;;
27225;SDS011;14732;51.074;3.788;2022-07-18T09:38:11;2.35;;;1.50;;
27225;SDS011;14732;51.074;3.788;2022-07-18T09:40:40;11.88;;;1.90;;
27225;SDS011;14732;51.074;3.788;2022-07-18T09:43:11;4.13;;;1.60;;
27225;SDS011;14732;51.074;3.788;2022-07-18T09:45:40;6.22;;;1.75;;
27225;SDS011;14732;51.074;3.788;2022-07-18T09:48:08;3.80;;;1.45;;
27225;SDS011;14732;51.074;3.788;2022-07-18T09:53:17;8.00;;;1.70;;
27225;SDS011;14732;51.074;3.788;2022-07-18T09:55:55;4.95;;;1.50;;
27225;SDS011;14732;51.074;3.788;2022-07-18T09:58:28;5.65;;;1.40;;
27225;SDS011;14732;51.074;3.788;2022-07-18T10:00:59;3.10;;;1.50;;
27225;SDS011;14732;51.074;3.788;2022-07-18T10:03:26;6.20;;;1.40;;
27225;SDS011;14732;51.074;3.788;2022-07-18T10:05:55;6.10;;;1.50;;
27225;SDS011;14732;51.074;3.788;2022-07-18T10:10:49;2.88;;;1.50;;
27225;SDS011;14732;51.074;3.788;2022-07-18T10:13:16;3.00;;;1.52;;
27225;SDS011;14732;51.074;3.788;2022-07-18T10:15:44;6.70;;;1.65;;
27225;SDS011;14732;51.074;3.788;2022-07-18T10:18:12;4.25;;;1.67;;
27225;SDS011;14732;51.074;3.788;2022-07-18T10:20:52;4.80;;;1.60;;
27225;SDS011;14732;51.074;3.788;2022-07-18T10:23:23;2.45;;;1.70;;
27225;SDS011;14732;51.074;3.788;2022-07-18T10:26:22;2.25;;;1.80;;
27225;SDS011;14732;51.074;3.788;2022-07-18T10:33:49;2.70;;;1.40;;
27225;SDS011;14732;51.074;3.788;2022-07-18T10:36:18;3.03;;;1.40;;
27225;SDS011;14732;51.074;3.788;2022-07-18T10:42:19;5.03;;;1.50;;
27225;SDS011;14732;51.074;3.788;2022-07-18T10:47:16;5.22;;;1.60;;
27225;SDS011;14732;51.074;3.788;2022-07-18T11:00:14;4.13;;;1.60;;
27225;SDS011;14732;51.074;3.788;2022-07-18T11:02:47;4.20;;;1.80;;
27225;SDS011;14732;51.074;3.788;2022-07-18T11:16:03;4.85;;;1.95;;
27225;SDS011;14732;51.074;3.788;2022-07-18T11:21:25;5.03;;;1.48;;
27225;SDS011;14732;51.074;3.788;2022-07-18T11:24:12;3.80;;;1.33;;
27225;SDS011;14732;51.074;3.788;2022-07-18T11:26:42;3.38;;;1.60;;
27225;SDS011;14732;51.074;3.788;2022-07-18T11:29:11;7.03;;;1.58;;
27225;SDS011;14732;51.074;3.788;2022-07-18T11:31:45;8.15;;;1.48;;
27225;SDS011;14732;51.074;3.788;2022-07-18T11:34:12;2.50;;;1.20;;
27225;SDS011;14732;51.074;3.788;2022-07-18T11:36:39;1.60;;;1.42;;
27225;SDS011;14732;51.074;3.788;2022-07-18T11:39:08;4.80;;;1.67;;
27225;SDS011;14732;51.074;3.788;2022-07-18T11:41:35;2.53;;;1.50;;
27225;SDS011;14732;51.074;3.788;2022-07-18T11:44:03;3.55;;;1.55;;
27225;SDS011;14732;51.074;3.788;2022-07-18T11:46:29;3.60;;;1.50;;
27225;SDS011;14732;51.074;3.788;2022-07-18T11:48:58;2.50;;;1.73;;
27225;SDS011;14732;51.074;3.788;2022-07-18T11:51:35;1.60;;;1.40;;
27225;SDS011;14732;51.074;3.788;2022-07-18T11:54:03;2.30;;;1.40;;
27225;SDS011;14732;51.074;3.788;2022-07-18T11:56:29;2.08;;;1.50;;
27225;SDS011;14732;51.074;3.788;2022-07-18T11:58:55;3.47;;;1.40;;
27225;SDS011;14732;51.074;3.788;2022-07-18T12:01:22;2.22;;;1.50;;
27225;SDS011;14732;51.074;3.788;2022-07-18T12:03:58;4.60;;;1.83;;
27225;SDS011;14732;51.074;3.788;2022-07-18T12:06:24;1.95;;;1.70;;
27225;SDS011;14732;51.074;3.788;2022-07-18T12:08:55;4.00;;;1.50;;
27225;SDS011;14732;51.074;3.788;2022-07-18T12:11:29;2.38;;;1.58;;
27225;SDS011;14732;51.074;3.788;2022-07-18T12:13:55;1.80;;;1.40;;
27225;SDS011;14732;51.074;3.788;2022-07-18T12:16:39;2.08;;;1.42;;
27225;SDS011;14732;51.074;3.788;2022-07-18T12:21:53;5.22;;;1.40;;
27225;SDS011;14732;51.074;3.788;2022-07-18T12:27:07;2.65;;;1.42;;
27225;SDS011;14732;51.074;3.788;2022-07-18T12:32:22;3.92;;;1.52;;
27225;SDS011;14732;51.074;3.788;2022-07-18T12:35:04;4.97;;;1.58;;
27225;SDS011;14732;51.074;3.788;2022-07-18T12:37:31;1.55;;;1.40;;
27225;SDS011;14732;51.074;3.788;2022-07-18T12:39:57;3.10;;;1.48;;
27225;SDS011;14732;51.074;3.788;2022-07-18T12:42:29;4.47;;;1.50;;
27225;SDS011;14732;51.074;3.788;2022-07-18T12:44:57;2.90;;;1.63;;
27225;SDS011;14732;51.074;3.788;2022-07-18T12:47:24;2.33;;;1.42;;
27225;SDS011;14732;51.074;3.788;2022-07-18T12:49:50;3.80;;;1.30;;
27225;SDS011;14732;51.074;3.788;2022-07-18T12:52:16;1.83;;;1.40;;
27225;SDS011;14732;51.074;3.788;2022-07-18T12:54:43;5.57;;;1.75;;
27225;SDS011;14732;51.074;3.788;2022-07-18T12:57:09;2.47;;;1.35;;
27225;SDS011;14732;51.074;3.788;2022-07-18T12:59:34;1.70;;;1.25;;
27225;SDS011;14732;51.074;3.788;2022-07-18T13:02:00;4.57;;;1.30;;
27225;SDS011;14732;51.074;3.788;2022-07-18T13:04:26;2.22;;;1.40;;
27225;SDS011;14732;51.074;3.788;2022-07-18T13:06:51;4.05;;;1.45;;
27225;SDS011;14732;51.074;3.788;2022-07-18T13:09:17;3.28;;;1.30;;
27225;SDS011;14732;51.074;3.788;2022-07-18T13:11:42;1.98;;;1.38;;
27225;SDS011;14732;51.074;3.788;2022-07-18T13:16:38;2.50;;;1.25;;
27225;SDS011;14732;51.074;3.788;2022-07-18T13:19:03;3.15;;;1.50;;
27225;SDS011;14732;51.074;3.788;2022-07-18T13:21:29;3.72;;;1.42;;
27225;SDS011;14732;51.074;3.788;2022-07-18T13:23:55;2.10;;;1.15;;
27225;SDS011;14732;51.074;3.788;2022-07-18T13:26:20;2.75;;;1.30;;
27225;SDS011;14732;51.074;3.788;2022-07-18T13:28:46;1.40;;;1.27;;
27225;SDS011;14732;51.074;3.788;2022-07-18T13:31:12;1.90;;;1.40;;
27225;SDS011;14732;51.074;3.788;2022-07-18T13:33:37;10.32;;;1.60;;
27225;SDS011;14732;51.074;3.788;2022-07-18T13:36:03;4.72;;;1.40;;
27225;SDS011;14732;51.074;3.788;2022-07-18T13:38:29;3.78;;;1.55;;
27225;SDS011;14732;51.074;3.788;2022-07-18T13:40:55;4.78;;;1.50;;
27225;SDS011;14732;51.074;3.788;2022-07-18T13:43:21;1.30;;;1.20;;
27225;SDS011;14732;51.074;3.788;2022-07-18T13:45:46;2.63;;;1.60;;
27225;SDS011;14732;51.074;3.788;2022-07-18T13:48:12;2.70;;;1.50;;
27225;SDS011;14732;51.074;3.788;2022-07-18T13:50:38;1.55;;;1.30;;
27225;SDS011;14732;51.074;3.788;2022-07-18T13:53:03;2.92;;;1.25;;
27225;SDS011;14732;51.074;3.788;2022-07-18T13:55:29;2.90;;;1.30;;
27225;SDS011;14732;51.074;3.788;2022-07-18T13:57:55;5.25;;;1.48;;
27225;SDS011;14732;51.074;3.788;2022-07-18T14:00:21;2.85;;;1.42;;
27225;SDS011;14732;51.074;3.788;2022-07-18T14:02:46;1.45;;;1.33;;
27225;SDS011;14732;51.074;3.788;2022-07-18T14:05:12;3.65;;;1.40;;
27225;SDS011;14732;51.074;3.788;2022-07-18T14:07:38;1.65;;;1.30;;
27225;SDS011;14732;51.074;3.788;2022-07-18T14:10:03;4.60;;;1.13;;
27225;SDS011;14732;51.074;3.788;2022-07-18T14:12:29;3.05;;;1.20;;
27225;SDS011;14732;51.074;3.788;2022-07-18T14:14:55;1.73;;;1.30;;
27225;SDS011;14732;51.074;3.788;2022-07-18T14:17:21;2.45;;;1.48;;
27225;SDS011;14732;51.074;3.788;2022-07-18T14:19:46;2.85;;;1.27;;
27225;SDS011;14732;51.074;3.788;2022-07-18T14:22:12;11.20;;;1.38;;
27225;SDS011;14732;51.074;3.788;2022-07-18T14:24:38;4.60;;;1.25;;
27225;SDS011;14732;51.074;3.788;2022-07-18T14:27:03;4.70;;;1.40;;
27225;SDS011;14732;51.074;3.788;2022-07-18T14:29:29;6.18;;;1.80;;
27225;SDS011;14732;51.074;3.788;2022-07-18T14:31:55;9.88;;;1.60;;
27225;SDS011;14732;51.074;3.788;2022-07-18T14:34:21;2.38;;;1.38;;
27225;SDS011;14732;51.074;3.788;2022-07-18T14:36:47;7.18;;;1.50;;
27225;SDS011;14732;51.074;3.788;2022-07-18T14:39:12;2.58;;;1.10;;
27225;SDS011;14732;51.074;3.788;2022-07-18T14:41:38;4.03;;;1.40;;
27225;SDS011;14732;51.074;3.788;2022-07-18T14:44:04;3.08;;;1.20;;
27225;SDS011;14732;51.074;3.788;2022-07-18T14:46:29;1.55;;;1.23;;
27225;SDS011;14732;51.074;3.788;2022-07-18T14:48:55;4.53;;;1.20;;
27225;SDS011;14732;51.074;3.788;2022-07-18T14:51:21;4.80;;;1.55;;
27225;SDS011;14732;51.074;3.788;2022-07-18T14:53:46;2.55;;;1.20;;
27225;SDS011;14732;51.074;3.788;2022-07-18T14:56:12;7.90;;;1.55;;
27225;SDS011;14732;51.074;3.788;2022-07-18T14:58:38;1.33;;;1.17;;
27225;SDS011;14732;51.074;3.788;2022-07-18T15:01:03;5.72;;;1.30;;
27225;SDS011;14732;51.074;3.788;2022-07-18T15:03:29;2.97;;;1.30;;
27225;SDS011;14732;51.074;3.788;2022-07-18T15:05:55;2.17;;;1.38;;
27225;SDS011;14732;51.074;3.788;2022-07-18T15:08:20;4.88;;;1.33;;
27225;SDS011;14732;51.074;3.788;2022-07-18T15:10:46;1.67;;;1.20;;
27225;SDS011;14732;51.074;3.788;2022-07-18T15:13:11;5.50;;;1.20;;
27225;SDS011;14732;51.074;3.788;2022-07-18T15:15:37;3.22;;;1.40;;
27225;SDS011;14732;51.074;3.788;2022-07-18T15:18:03;3.40;;;1.30;;
27225;SDS011;14732;51.074;3.788;2022-07-18T15:20:28;3.15;;;1.50;;
27225;SDS011;14732;51.074;3.788;2022-07-18T15:22:54;6.03;;;1.70;;
27225;SDS011;14732;51.074;3.788;2022-07-18T15:25:20;3.90;;;1.48;;
27225;SDS011;14732;51.074;3.788;2022-07-18T15:27:46;5.15;;;1.30;;
27225;SDS011;14732;51.074;3.788;2022-07-18T15:30:11;10.02;;;1.50;;
27225;SDS011;14732;51.074;3.788;2022-07-18T15:32:37;2.22;;;1.60;;
27225;SDS011;14732;51.074;3.788;2022-07-18T15:35:03;5.07;;;1.40;;
27225;SDS011;14732;51.074;3.788;2022-07-18T15:37:30;4.03;;;1.40;;
27225;SDS011;14732;51.074;3.788;2022-07-18T15:39:55;2.97;;;1.38;;
27225;SDS011;14732;51.074;3.788;2022-07-18T15:42:21;4.28;;;1.30;;
27225;SDS011;14732;51.074;3.788;2022-07-18T15:44:48;5.15;;;1.30;;
27225;SDS011;14732;51.074;3.788;2022-07-18T15:47:14;2.80;;;1.70;;